createdAt,value
2018-11-06T00:00:43.071Z,19.06
2018-11-06T00:03:17.170Z,19.30
2018-11-06T00:05:45.664Z,19.44
2018-11-06T00:08:14.147Z,18.94
2018-11-06T00:10:42.596Z,19.42
2018-11-06T00:13:11.806Z,19.15
2018-11-06T00:15:40.264Z,19.45
2018-11-06T00:18:08.720Z,19.24
2018-11-06T00:20:37.208Z,18.83
2018-11-06T00:23:05.756Z,18.84
2018-11-06T00:25:34.275Z,18.82
2018-11-06T00:28:02.760Z,18.67
2018-11-06T00:30:31.233Z,18.78
2018-11-06T00:32:59.694Z,19.15
2018-11-06T00:35:28.139Z,18.65
2018-11-06T00:37:56.673Z,18.88
2018-11-06T00:40:25.166Z,19.02
2018-11-06T00:42:53.644Z,18.82
2018-11-06T00:45:22.149Z,18.91
2018-11-06T00:47:50.593Z,18.87
2018-11-06T00:50:19.117Z,19.21
2018-11-06T00:52:47.591Z,18.86
2018-11-06T00:55:16.027Z,18.81
2018-11-06T00:57:45.220Z,18.79
2018-11-06T01:00:16.537Z,18.84
2018-11-06T01:02:45.364Z,18.73
2018-11-06T01:05:14.958Z,18.79
2018-11-06T01:07:44.586Z,18.72
2018-11-06T01:10:13.056Z,18.75
2018-11-06T01:13:44.269Z,18.76
2018-11-06T01:16:13.017Z,18.64
2018-11-06T01:18:41.548Z,18.86
2018-11-06T01:21:10.159Z,18.71
2018-11-06T01:23:38.659Z,18.89
2018-11-06T01:26:07.446Z,18.67
2018-11-06T01:28:36.028Z,18.61
2018-11-06T01:31:04.496Z,18.54
2018-11-06T01:33:32.983Z,18.55
2018-11-06T01:36:01.467Z,18.41
2018-11-06T01:38:29.964Z,18.27
2018-11-06T01:40:58.499Z,18.44
2018-11-06T01:43:26.984Z,18.18
2018-11-06T01:45:55.487Z,18.43
2018-11-06T01:48:24.639Z,18.35
2018-11-06T01:50:53.137Z,18.42
2018-11-06T01:53:21.882Z,18.03
2018-11-06T01:55:50.387Z,18.37
2018-11-06T01:58:18.885Z,17.86
2018-11-06T02:00:47.383Z,17.84
2018-11-06T02:03:15.881Z,17.87
2018-11-06T02:05:44.374Z,17.81
2018-11-06T02:08:12.925Z,17.97
2018-11-06T02:10:41.403Z,17.79
2018-11-06T02:13:09.969Z,17.86
2018-11-06T02:15:38.473Z,17.83
2018-11-06T02:18:07.006Z,17.88
2018-11-06T02:20:35.619Z,17.96
2018-11-06T02:23:04.106Z,18.00
2018-11-06T02:25:32.555Z,17.52
2018-11-06T02:28:01.031Z,17.45
2018-11-06T02:30:29.853Z,17.39
2018-11-06T02:32:58.337Z,17.60
2018-11-06T02:38:57.911Z,17.41
2018-11-06T02:41:26.396Z,17.66
2018-11-06T02:43:54.895Z,17.26
2018-11-06T02:46:23.360Z,17.37
2018-11-06T02:48:51.889Z,17.35
2018-11-06T02:51:20.594Z,16.90
2018-11-06T02:53:49.359Z,17.30
2018-11-06T02:56:17.931Z,17.31
2018-11-06T02:58:46.454Z,17.21
2018-11-06T03:01:14.925Z,17.36
2018-11-06T03:03:43.425Z,16.91
2018-11-06T03:06:12.848Z,16.83
2018-11-06T03:08:42.072Z,17.23
2018-11-06T03:11:10.992Z,17.30
2018-11-06T03:13:39.483Z,17.31
2018-11-06T03:16:08.001Z,17.00
2018-11-06T03:18:36.511Z,17.06
2018-11-06T03:21:05.024Z,17.27
2018-11-06T03:23:33.552Z,17.43
2018-11-06T03:26:01.999Z,17.33
2018-11-06T03:28:30.747Z,17.31
2018-11-06T03:30:59.403Z,17.30
2018-11-06T03:33:27.914Z,17.36
2018-11-06T03:35:56.423Z,17.46
2018-11-06T03:38:24.866Z,17.35
2018-11-06T03:40:53.356Z,17.56
2018-11-06T03:43:21.860Z,17.59
2018-11-06T03:45:50.468Z,17.63
2018-11-06T03:48:18.967Z,17.69
2018-11-06T03:50:47.460Z,17.60
2018-11-06T03:53:15.965Z,17.31
2018-11-06T03:55:44.471Z,17.26
2018-11-06T03:58:12.971Z,17.39
2018-11-06T04:00:41.463Z,17.66
2018-11-06T04:03:10.254Z,17.34
2018-11-06T04:05:38.719Z,17.39
2018-11-06T04:08:07.219Z,17.49
2018-11-06T04:10:35.698Z,17.46
2018-11-06T04:13:04.271Z,17.54
2018-11-06T04:15:32.765Z,17.61
2018-11-06T04:18:01.440Z,19.42
2018-11-06T04:20:29.953Z,19.43
2018-11-06T04:22:58.407Z,19.63
2018-11-06T04:25:26.844Z,19.28
2018-11-06T04:27:55.510Z,18.82
2018-11-06T04:30:24.069Z,18.85
2018-11-06T04:32:52.549Z,19.05
2018-11-06T04:35:21.063Z,19.02
2018-11-06T04:37:49.711Z,19.37
2018-11-06T04:40:18.156Z,19.28
2018-11-06T04:42:46.646Z,19.44
2018-11-06T04:45:15.189Z,18.42
2018-11-06T04:47:43.893Z,17.80
2018-11-06T04:50:12.374Z,18.01
2018-11-06T04:52:41.603Z,17.73
2018-11-06T04:55:11.563Z,17.47
2018-11-06T04:57:40.081Z,17.44
2018-11-06T05:00:10.780Z,17.66
2018-11-06T05:02:39.620Z,17.55
2018-11-06T05:05:08.918Z,17.42
2018-11-06T05:07:37.902Z,17.37
2018-11-06T05:10:08.271Z,17.09
2018-11-06T05:12:36.824Z,17.22
2018-11-06T05:15:06.511Z,16.71
2018-11-06T05:17:35.430Z,16.64
2018-11-06T05:20:04.499Z,16.73
2018-11-06T05:22:33.199Z,16.91
2018-11-06T05:25:01.697Z,16.57
2018-11-06T05:27:30.244Z,16.72
2018-11-06T05:29:59.273Z,16.98
2018-11-06T05:32:27.729Z,16.93
2018-11-06T05:34:56.320Z,16.87
2018-11-06T05:37:24.848Z,16.91
2018-11-06T05:40:04.445Z,17.18
2018-11-06T05:42:32.984Z,17.10
2018-11-06T05:45:01.516Z,16.78
2018-11-06T05:47:30.443Z,16.57
2018-11-06T05:49:59.091Z,16.76
2018-11-06T05:52:27.512Z,16.64
2018-11-06T05:54:55.999Z,16.60
2018-11-06T05:57:24.450Z,16.51
2018-11-06T05:59:52.916Z,16.39
2018-11-06T06:02:21.427Z,16.50
2018-11-06T06:04:49.911Z,16.61
2018-11-06T06:07:18.395Z,16.55
2018-11-06T06:09:46.899Z,16.66
2018-11-06T06:12:15.675Z,16.89
2018-11-06T06:14:44.167Z,17.22
2018-11-06T06:17:12.723Z,17.10
2018-11-06T06:19:41.116Z,17.35
2018-11-06T06:22:09.611Z,17.35
2018-11-06T06:24:38.092Z,17.68
2018-11-06T06:27:06.656Z,17.71
2018-11-06T06:29:35.157Z,17.91
2018-11-06T06:32:03.671Z,17.42
2018-11-06T06:34:32.162Z,17.88
2018-11-06T06:37:00.740Z,17.71
2018-11-06T06:39:29.234Z,17.93
2018-11-06T06:41:57.981Z,17.79
2018-11-06T06:44:26.474Z,17.93
2018-11-06T06:46:54.959Z,18.09
2018-11-06T06:49:23.475Z,18.06
2018-11-06T06:51:51.987Z,18.16
2018-11-06T06:54:21.077Z,18.30
2018-11-06T06:56:49.449Z,17.94
2018-11-06T06:59:18.084Z,18.34
2018-11-06T07:01:46.896Z,18.28
2018-11-06T07:04:18.258Z,18.48
2018-11-06T07:06:47.335Z,18.23
2018-11-06T07:09:15.822Z,18.44
2018-11-06T07:11:44.717Z,18.55
2018-11-06T07:14:13.167Z,18.62
2018-11-06T07:16:41.776Z,18.43
2018-11-06T07:19:10.257Z,18.77
2018-11-06T07:21:38.713Z,19.00
2018-11-06T07:24:07.227Z,18.93
2018-11-06T07:26:35.712Z,18.96
2018-11-06T07:29:04.200Z,19.16
2018-11-06T07:31:32.679Z,19.28
2018-11-06T07:34:01.169Z,19.21
2018-11-06T07:36:29.687Z,19.35
2018-11-06T07:38:58.142Z,19.56
2018-11-06T07:41:26.608Z,19.59
2018-11-06T07:43:55.092Z,19.43
2018-11-06T07:46:23.630Z,19.73
2018-11-06T07:48:52.095Z,19.75
2018-11-06T07:51:20.700Z,19.92
2018-11-06T07:53:49.166Z,19.91
2018-11-06T07:56:17.962Z,20.31
2018-11-06T07:58:46.376Z,20.28
2018-11-06T08:01:14.966Z,20.32
2018-11-06T08:03:43.459Z,20.40
2018-11-06T08:06:12.007Z,21.00
2018-11-06T08:08:40.451Z,20.91
2018-11-06T08:11:08.929Z,20.70
2018-11-06T08:13:37.427Z,20.59
2018-11-06T08:16:06.473Z,20.75
2018-11-06T08:18:34.985Z,21.08
2018-11-06T08:21:03.443Z,21.16
2018-11-06T08:23:31.967Z,21.22
2018-11-06T08:26:00.472Z,21.72
2018-11-06T08:28:28.907Z,21.83
2018-11-06T08:30:57.572Z,21.48
2018-11-06T08:33:25.835Z,21.61
2018-11-06T08:35:54.317Z,21.66
2018-11-06T08:38:22.789Z,21.59
2018-11-06T08:40:51.298Z,21.89
2018-11-06T08:43:19.786Z,22.17
2018-11-06T08:45:48.257Z,21.67
2018-11-06T08:48:16.817Z,22.36
2018-11-06T08:50:45.185Z,22.64
2018-11-06T08:53:13.684Z,22.71
2018-11-06T08:55:42.139Z,22.67
2018-11-06T08:58:10.649Z,22.48
2018-11-06T09:00:39.346Z,22.99
2018-11-06T09:03:08.035Z,22.42
2018-11-06T09:05:36.541Z,22.18
2018-11-06T09:08:05.412Z,22.70
2018-11-06T09:10:33.887Z,23.26
2018-11-06T09:13:02.464Z,22.57
2018-11-06T09:15:30.909Z,22.83
2018-11-06T09:17:59.356Z,23.62
2018-11-06T09:20:27.859Z,23.27
2018-11-06T09:22:56.364Z,22.86
2018-11-06T09:25:24.991Z,23.61
2018-11-06T09:27:53.471Z,23.50
2018-11-06T09:30:22.120Z,23.86
2018-11-06T09:32:50.635Z,23.62
2018-11-06T09:35:19.140Z,24.18
2018-11-06T09:37:47.833Z,24.13
2018-11-06T09:40:18.583Z,23.98
2018-11-06T09:42:47.106Z,23.57
2018-11-06T09:45:15.963Z,24.09
2018-11-06T09:47:44.489Z,24.36
2018-11-06T09:50:14.712Z,24.03
2018-11-06T09:52:43.893Z,24.15
2018-11-06T09:55:12.642Z,24.13
2018-11-06T09:57:41.152Z,24.03
2018-11-06T10:00:13.178Z,24.63
2018-11-06T10:02:41.632Z,24.26
2018-11-06T10:05:11.648Z,24.75
2018-11-06T10:07:40.281Z,25.02
2018-11-06T10:10:14.896Z,24.95
2018-11-06T10:12:43.836Z,24.92
2018-11-06T10:15:16.827Z,25.04
2018-11-06T10:17:47.047Z,25.05
2018-11-06T10:20:16.982Z,25.44
2018-11-06T10:22:45.427Z,25.52
2018-11-06T10:25:13.962Z,25.31
2018-11-06T10:27:42.682Z,25.46
2018-11-06T10:30:13.675Z,25.68
2018-11-06T10:32:42.830Z,25.89
2018-11-06T10:35:11.855Z,26.10
2018-11-06T10:38:43.168Z,26.06
2018-11-06T10:41:11.670Z,26.74
2018-11-06T10:43:40.206Z,28.21
2018-11-06T10:46:08.653Z,28.57
2018-11-06T10:48:37.090Z,27.62
2018-11-06T10:51:06.069Z,27.33
2018-11-06T10:53:34.517Z,28.52
2018-11-06T10:56:02.933Z,29.66
2018-11-06T10:58:31.900Z,29.35
2018-11-06T11:01:05.679Z,29.27
2018-11-06T11:03:39.746Z,30.51
2018-11-06T11:06:08.583Z,29.03
2018-11-06T11:08:37.069Z,30.16
2018-11-06T11:11:05.646Z,29.34
2018-11-06T11:13:34.133Z,29.95
2018-11-06T11:16:02.614Z,29.91
2018-11-06T11:18:31.144Z,30.07
2018-11-06T11:20:59.618Z,29.99
2018-11-06T11:23:28.059Z,33.29
2018-11-06T11:25:56.548Z,31.56
2018-11-06T11:28:25.036Z,31.11
2018-11-06T11:30:53.762Z,30.68
2018-11-06T11:33:22.252Z,33.02
2018-11-06T11:35:50.771Z,33.76
2018-11-06T11:38:19.286Z,34.10
2018-11-06T11:40:47.784Z,33.01
2018-11-06T11:43:16.298Z,31.62
2018-11-06T11:45:44.826Z,33.60
2018-11-06T11:48:13.343Z,32.84
2018-11-06T11:50:41.795Z,32.41
2018-11-06T11:53:10.421Z,33.33
2018-11-06T11:55:39.001Z,32.74
2018-11-06T11:58:07.479Z,33.08
2018-11-06T12:00:39.894Z,33.49
2018-11-06T12:03:09.104Z,32.72
2018-11-06T12:05:37.613Z,32.75
2018-11-06T12:08:06.125Z,33.78
2018-11-06T12:10:34.548Z,34.92
2018-11-06T12:13:03.004Z,32.47
2018-11-06T12:15:31.476Z,30.61
2018-11-06T12:17:59.901Z,32.45
2018-11-06T12:20:28.443Z,33.92
2018-11-06T12:22:56.927Z,32.44
2018-11-06T12:25:25.829Z,30.57
2018-11-06T12:27:54.047Z,30.50
2018-11-06T12:30:22.559Z,32.57
2018-11-06T12:32:51.332Z,32.96
2018-11-06T12:35:19.787Z,34.09
2018-11-06T12:37:48.212Z,34.24
2018-11-06T12:40:16.875Z,33.28
2018-11-06T12:42:45.417Z,33.91
2018-11-06T12:45:15.567Z,34.50
2018-11-06T12:47:44.984Z,30.74
2018-11-06T12:50:13.463Z,32.66
2018-11-06T12:52:42.501Z,32.41
2018-11-06T12:55:13.100Z,33.77
2018-11-06T12:57:41.578Z,32.77
2018-11-06T13:00:13.202Z,31.73
2018-11-06T13:02:41.743Z,32.50
2018-11-06T13:05:10.903Z,33.75
2018-11-06T13:07:40.838Z,33.52
2018-11-06T13:10:10.088Z,33.42
2018-11-06T13:12:39.438Z,33.73
2018-11-06T13:15:08.565Z,34.79
2018-11-06T13:17:37.747Z,32.59
2018-11-06T13:20:08.107Z,33.25
2018-11-06T13:22:36.618Z,32.40
2018-11-06T13:25:05.702Z,34.41
2018-11-06T13:27:34.159Z,32.61
2018-11-06T13:30:02.736Z,33.84
2018-11-06T13:32:31.188Z,34.63
2018-11-06T13:34:59.673Z,32.62
2018-11-06T13:37:28.299Z,32.63
2018-11-06T13:39:56.767Z,33.26
2018-11-06T13:42:25.252Z,32.58
2018-11-06T13:44:54.007Z,32.69
2018-11-06T13:47:22.351Z,34.01
2018-11-06T13:49:50.930Z,31.96
2018-11-06T13:52:19.648Z,33.51
2018-11-06T13:54:48.082Z,33.52
2018-11-06T13:57:16.527Z,32.43
2018-11-06T13:59:45.140Z,32.35
2018-11-06T14:02:13.699Z,33.34
2018-11-06T14:04:42.148Z,32.76
2018-11-06T14:07:10.691Z,32.75
2018-11-06T14:09:39.134Z,31.00
2018-11-06T14:12:07.920Z,31.81
2018-11-06T14:14:36.403Z,29.48
2018-11-06T14:17:05.152Z,30.32
2018-11-06T14:19:33.600Z,29.87
2018-11-06T14:22:02.215Z,29.41
2018-11-06T14:24:30.703Z,29.13
2018-11-06T14:26:59.186Z,28.79
2018-11-06T14:29:27.690Z,28.04
2018-11-06T14:31:56.483Z,27.70
2018-11-06T14:34:25.017Z,28.45
2018-11-06T14:36:53.500Z,28.18
2018-11-06T14:39:22.161Z,28.35
2018-11-06T14:41:50.656Z,28.34
2018-11-06T14:44:19.163Z,28.45
2018-11-06T14:46:47.648Z,27.89
2018-11-06T14:49:16.158Z,28.48
2018-11-06T14:51:44.883Z,27.91
2018-11-06T14:54:14.602Z,27.65
2018-11-06T14:56:43.377Z,26.74
2018-11-06T14:59:11.838Z,26.44
2018-11-06T15:01:40.296Z,25.80
2018-11-06T15:04:08.776Z,26.32
2018-11-06T15:06:37.597Z,26.31
2018-11-06T15:09:08.425Z,25.86
2018-11-06T15:11:37.683Z,25.99
2018-11-06T15:14:06.371Z,25.76
2018-11-06T15:19:34.660Z,25.76
2018-11-06T15:22:04.564Z,25.69
2018-11-06T15:24:33.392Z,25.25
2018-11-06T15:27:02.012Z,25.12
2018-11-06T15:29:30.888Z,24.89
2018-11-06T15:31:59.321Z,25.04
2018-11-06T15:34:27.960Z,24.73
2018-11-06T15:36:56.579Z,24.46
2018-11-06T15:39:25.347Z,24.22
2018-11-06T15:41:53.903Z,24.06
2018-11-06T15:44:22.287Z,24.30
2018-11-06T15:46:50.956Z,24.13
2018-11-06T15:49:19.799Z,23.87
2018-11-06T15:51:48.487Z,23.72
2018-11-06T15:54:16.985Z,23.95
2018-11-06T15:56:45.828Z,23.64
2018-11-06T15:59:14.988Z,23.60
2018-11-06T16:01:43.489Z,23.70
2018-11-06T16:04:12.205Z,23.28
2018-11-06T16:06:40.674Z,23.24
2018-11-06T16:09:09.665Z,23.67
2018-11-06T16:11:38.149Z,23.45
2018-11-06T16:14:06.704Z,23.26
2018-11-06T16:16:35.236Z,23.25
2018-11-06T16:19:03.982Z,23.09
2018-11-06T16:21:32.580Z,23.08
2018-11-06T16:24:01.176Z,23.02
2018-11-06T16:26:29.691Z,22.97
2018-11-06T16:28:58.505Z,22.68
2018-11-06T16:31:27.002Z,22.79
2018-11-06T16:33:55.600Z,22.53
2018-11-06T16:36:24.747Z,22.69
2018-11-06T16:38:53.872Z,22.53
2018-11-06T16:41:22.417Z,22.66
2018-11-06T16:43:50.973Z,22.66
2018-11-06T16:46:19.427Z,22.68
2018-11-06T16:48:48.453Z,22.70
2018-11-06T16:51:17.143Z,22.95
2018-11-06T16:53:45.593Z,22.67
2018-11-06T16:56:14.063Z,22.04
2018-11-06T16:58:42.515Z,22.29
2018-11-06T17:01:11.149Z,22.44
2018-11-06T17:03:39.524Z,22.41
2018-11-06T17:06:12.211Z,22.29
2018-11-06T17:08:40.998Z,22.26
2018-11-06T17:11:10.213Z,22.13
2018-11-06T17:13:39.084Z,22.22
2018-11-06T17:16:08.521Z,22.53
2018-11-06T17:18:37.141Z,22.06
2018-11-06T17:21:06.334Z,22.19
2018-11-06T17:23:35.157Z,22.36
2018-11-06T17:26:03.715Z,22.33
2018-11-06T17:28:32.239Z,22.06
2018-11-06T17:31:00.721Z,22.14
2018-11-06T17:33:29.280Z,22.22
2018-11-06T17:35:57.870Z,21.93
2018-11-06T17:38:26.560Z,22.13
2018-11-06T17:40:55.093Z,21.95
2018-11-06T17:43:23.576Z,21.88
2018-11-06T17:45:52.339Z,21.60
2018-11-06T17:48:21.331Z,21.96
2018-11-06T17:50:50.235Z,21.91
2018-11-06T17:53:18.720Z,21.90
2018-11-06T17:55:47.374Z,21.85
2018-11-06T17:58:15.892Z,21.99
2018-11-06T18:00:44.659Z,21.84
2018-11-06T18:03:13.133Z,22.03
2018-11-06T18:05:41.831Z,21.64
2018-11-06T18:08:10.366Z,21.82
2018-11-06T18:10:42.772Z,21.59
2018-11-06T18:13:11.498Z,21.69
2018-11-06T18:15:40.064Z,21.60
2018-11-06T18:18:08.678Z,21.58
2018-11-06T18:20:37.313Z,21.44
2018-11-06T18:23:05.915Z,21.20
2018-11-06T18:25:34.482Z,21.61
2018-11-06T18:28:02.915Z,21.49
2018-11-06T18:30:31.392Z,21.50
2018-11-06T18:33:00.482Z,21.13
2018-11-06T18:35:29.013Z,21.86
2018-11-06T18:37:57.532Z,21.64
2018-11-06T18:40:26.113Z,21.69
2018-11-06T18:42:54.751Z,21.46
2018-11-06T18:45:23.290Z,21.55
2018-11-06T18:47:51.878Z,21.77
2018-11-06T18:50:20.817Z,21.39
2018-11-06T18:52:50.577Z,21.29
2018-11-06T18:57:54.312Z,21.38
2018-11-06T19:00:23.787Z,21.90
2018-11-06T19:02:53.469Z,21.81
2018-11-06T19:05:23.368Z,21.62
2018-11-06T19:07:52.068Z,21.22
2018-11-06T19:10:20.602Z,21.67
2018-11-06T19:12:49.089Z,21.18
2018-11-06T19:15:19.324Z,22.16
2018-11-06T19:17:48.558Z,21.97
2018-11-06T19:20:17.624Z,22.02
2018-11-06T19:22:46.652Z,22.01
2018-11-06T19:25:15.616Z,21.99
2018-11-06T19:27:44.947Z,22.06
2018-11-06T19:30:15.632Z,22.34
2018-11-06T19:32:44.089Z,22.26
2018-11-06T19:35:13.224Z,22.46
2018-11-06T19:37:42.653Z,21.64
2018-11-06T19:40:13.093Z,22.34
2018-11-06T19:42:42.462Z,22.00
2018-11-06T19:45:11.906Z,22.20
2018-11-06T19:47:41.219Z,22.27
2018-11-06T19:50:12.256Z,22.00
2018-11-06T19:52:41.611Z,22.07
2018-11-06T19:55:11.856Z,22.07
2018-11-06T19:57:40.739Z,21.88
2018-11-06T20:00:19.028Z,22.00
2018-11-06T20:02:49.904Z,21.62
2018-11-06T20:05:19.449Z,21.25
2018-11-06T20:07:49.166Z,21.10
2018-11-06T20:10:20.041Z,20.92
2018-11-06T20:12:49.819Z,20.97
2018-11-06T20:15:18.785Z,20.79
2018-11-06T20:17:47.720Z,21.03
2018-11-06T20:20:22.837Z,21.05
2018-11-06T20:22:51.828Z,20.85
2018-11-06T20:25:20.328Z,21.17
2018-11-06T20:27:48.894Z,20.93
2018-11-06T20:30:19.433Z,21.28
2018-11-06T20:32:48.211Z,21.02
2018-11-06T20:35:17.217Z,20.66
2018-11-06T20:37:45.808Z,20.78
2018-11-06T20:40:16.542Z,21.00
2018-11-06T20:42:45.663Z,21.43
2018-11-06T20:45:15.663Z,21.33
2018-11-06T20:47:45.021Z,21.37
2018-11-06T20:50:18.980Z,21.39
2018-11-06T20:52:47.965Z,20.96
2018-11-06T20:55:17.584Z,20.17
2018-11-06T20:57:46.138Z,20.70
2018-11-06T21:00:23.798Z,21.07
2018-11-06T21:02:53.742Z,21.15
2018-11-06T21:05:22.548Z,21.24
2018-11-06T21:07:51.675Z,20.89
2018-11-06T21:10:22.469Z,21.10
2018-11-06T21:12:51.145Z,20.88
2018-11-06T21:15:19.967Z,20.81
2018-11-06T21:17:48.778Z,20.73
2018-11-06T21:20:17.829Z,21.12
2018-11-06T21:22:46.263Z,21.11
2018-11-06T21:25:15.408Z,21.23
2018-11-06T21:27:44.355Z,21.11
2018-11-06T21:30:15.215Z,20.96
2018-11-06T21:32:45.464Z,21.00
2018-11-06T21:35:13.979Z,20.77
2018-11-06T21:37:42.447Z,20.98
2018-11-06T21:40:15.787Z,21.31
2018-11-06T21:42:44.782Z,21.48
2018-11-06T21:45:14.360Z,21.46
2018-11-06T21:47:43.663Z,21.48
2018-11-06T21:50:13.004Z,21.07
2018-11-06T21:52:41.589Z,20.93
2018-11-06T21:55:11.507Z,20.79
2018-11-06T21:57:40.060Z,20.97
2018-11-06T22:00:12.073Z,21.12
2018-11-06T22:02:40.637Z,20.99
2018-11-06T22:05:10.955Z,21.33
2018-11-06T22:07:39.883Z,21.13
2018-11-06T22:10:10.206Z,21.05
2018-11-06T22:12:38.846Z,20.73
2018-11-06T22:15:09.013Z,20.44
2018-11-06T22:17:37.788Z,20.68
2018-11-06T22:20:07.716Z,20.44
2018-11-06T22:22:36.172Z,20.57
2018-11-06T22:25:04.988Z,20.41
2018-11-06T22:27:33.562Z,20.33
2018-11-06T22:30:02.023Z,20.33
2018-11-06T22:32:30.512Z,20.16
2018-11-06T22:34:58.975Z,20.72
2018-11-06T22:37:27.441Z,20.48
2018-11-06T22:39:56.895Z,20.40
2018-11-06T22:42:25.392Z,20.33
2018-11-06T22:44:53.855Z,20.38
2018-11-06T22:47:22.343Z,20.18
2018-11-06T22:49:50.836Z,20.36
2018-11-06T22:52:19.311Z,20.44
2018-11-06T22:54:47.786Z,20.31
2018-11-06T23:00:53.476Z,19.78
2018-11-06T23:03:21.995Z,19.85
2018-11-06T23:05:50.536Z,19.85
2018-11-06T23:08:24.308Z,19.64
2018-11-06T23:10:52.912Z,19.86
2018-11-06T23:13:21.419Z,19.79
2018-11-06T23:15:49.874Z,19.38
2018-11-06T23:18:18.624Z,19.11
2018-11-06T23:20:47.133Z,19.39
2018-11-06T23:23:15.656Z,19.30
2018-11-06T23:25:44.112Z,19.51
2018-11-06T23:28:12.560Z,19.68
2018-11-06T23:30:41.047Z,19.31
2018-11-06T23:33:09.524Z,19.54
2018-11-06T23:35:38.019Z,19.31
2018-11-06T23:38:06.682Z,19.51
2018-11-06T23:40:35.297Z,19.48
2018-11-06T23:43:04.539Z,19.32
2018-11-06T23:45:32.987Z,19.34
2018-11-06T23:48:01.476Z,19.29
2018-11-06T23:50:29.907Z,19.24
2018-11-06T23:52:58.407Z,19.19
2018-11-06T23:55:26.895Z,19.25
2018-11-06T23:57:55.356Z,19.50
